This is the latest recevied weather packets stored in our database for station/object KM4FZA. If no packets are shown the sender has not sent any weather packets the latest 10 day(s).
| Time | Temp. | Humidity | Pressure | Rain* | Wind** | Luminosity | Snow |
|---|---|---|---|---|---|---|---|
| 1777065325 | 29.44° C | 28% | 1011.9 hPa | 0 mm | - | - | - |
| 1777064118 | 30.56° C | 25% | 1012.1 hPa | 0 mm | - | - | - |
| 1777063524 | 30° C | 27% | 1012.1 hPa | 0 mm | - | - | - |
| 1777061763 | 31.67° C | 24% | 1012.5 hPa | 0 mm | - | - | - |
| 1777060515 | 31.11° C | 25% | 1012.6 hPa | 0 mm | - | - | - |
| 1777050925 | 30° C | 29% | 1014.7 hPa | 0 mm | - | - | - |
| 1777050340 | 30° C | 28% | 1014.8 hPa | 0 mm | - | - | - |
| 1777046736 | 28.33° C | 35% | 1015.3 hPa | 0 mm | - | - | - |
| 1777045521 | 28.33° C | 35% | 1015.5 hPa | 0 mm | - | - | - |
| 1777044320 | 27.22° C | 37% | 1015.8 hPa | 0 mm | - | - | - |
| 1777043119 | 26.67° C | 40% | 1016 hPa | 0 mm | - | - | - |
| 1777042519 | 25.56° C | 42% | 1016 hPa | 0 mm | - | - | - |
| 1777038326 | 21.11° C | 52% | 1016.2 hPa | 0 mm | - | - | - |
| 1777034128 | 16.67° C | 64% | 1016.6 hPa | 0 mm | - | - | - |
| 1777033517 | 15° C | 70% | 1016.6 hPa | 0 mm | - | - | - |
| 1777031732 | 12.22° C | 80% | 1016.6 hPa | 0 mm | - | - | - |
| 1777028745 | 10.56° C | 84% | 1016.4 hPa | 0 mm | - | - | - |
| 1777026923 | 10.56° C | 83% | 1016 hPa | 0 mm | - | - | - |
| 1777025715 | 10.56° C | 79% | 1015.8 hPa | 0 mm | - | - | - |
| 1777024526 | 11.11° C | 80% | 1015.7 hPa | 0 mm | - | - | - |
| 1777023932 | 11.67° C | 77% | 1015.7 hPa | 0 mm | - | - | - |
| 1777020349 | 13.33° C | 68% | 1016 hPa | 0 mm | - | - | - |
| 1777017320 | 13.89° C | 68% | 1015.5 hPa | 0 mm | - | - | - |
| 1777014330 | 13.89° C | 65% | 1015.5 hPa | 0 mm | - | - | - |
| 1777013717 | 14.44° C | 61% | 1015.5 hPa | 0 mm | - | - | - |
* Rain latest hour (hover to see other rain measurements)
** Current wind speed in m/s (hover to see current wind gust speed)